createdAt,value
2018-05-14T00:01:08.214Z,14.54
2018-05-14T00:03:35.830Z,14.45
2018-05-14T00:06:03.446Z,14.47
2018-05-14T00:08:31.061Z,14.46
2018-05-14T00:10:58.632Z,14.52
2018-05-14T00:13:26.206Z,14.46
2018-05-14T00:15:53.782Z,14.52
2018-05-14T00:18:21.398Z,14.65
2018-05-14T00:20:49.078Z,14.62
2018-05-14T00:23:16.697Z,14.49
2018-05-14T00:25:44.281Z,14.43
2018-05-14T00:28:11.901Z,14.60
2018-05-14T00:30:39.486Z,14.46
2018-05-14T00:33:07.158Z,14.50
2018-05-14T00:35:35.658Z,14.51
2018-05-14T00:38:03.272Z,14.36
2018-05-14T00:40:30.845Z,14.52
2018-05-14T00:42:58.465Z,14.64
2018-05-14T00:45:26.047Z,14.52
2018-05-14T00:47:53.627Z,14.58
2018-05-14T00:50:21.310Z,14.37
2018-05-14T00:52:49.005Z,14.53
2018-05-14T00:55:17.345Z,14.36
2018-05-14T00:57:44.922Z,14.34
2018-05-14T01:00:13.448Z,14.23
2018-05-14T01:02:41.035Z,14.28
2018-05-14T01:05:08.659Z,14.58
2018-05-14T01:07:36.246Z,14.62
2018-05-14T01:10:03.898Z,14.55
2018-05-14T01:12:31.475Z,14.55
2018-05-14T01:14:59.093Z,14.60
2018-05-14T01:17:26.671Z,14.55
2018-05-14T01:19:55.081Z,14.36
2018-05-14T01:22:22.652Z,14.31
2018-05-14T01:24:55.879Z,14.22
2018-05-14T01:27:23.458Z,14.24
2018-05-14T01:29:51.030Z,14.14
2018-05-14T01:32:18.601Z,14.30
2018-05-14T01:34:46.180Z,14.31
2018-05-14T01:37:13.761Z,14.42
2018-05-14T01:39:41.337Z,14.32
2018-05-14T01:42:08.917Z,14.27
2018-05-14T01:44:36.497Z,14.27
2018-05-14T01:47:04.165Z,14.07
2018-05-14T01:49:31.737Z,13.93
2018-05-14T01:51:59.371Z,13.93
2018-05-14T01:54:26.945Z,13.89
2018-05-14T01:56:54.518Z,13.90
2018-05-14T01:59:22.094Z,13.78
2018-05-14T02:01:49.680Z,13.81
2018-05-14T02:04:17.261Z,13.73
2018-05-14T02:06:44.840Z,13.70
2018-05-14T02:09:12.417Z,13.81
2018-05-14T02:11:39.994Z,13.78
2018-05-14T02:14:07.569Z,13.83
2018-05-14T02:16:35.148Z,13.73
2018-05-14T02:19:02.723Z,13.82
2018-05-14T02:21:30.369Z,13.71
2018-05-14T02:23:57.985Z,13.59
2018-05-14T02:26:25.590Z,13.53
2018-05-14T02:28:53.395Z,13.51
2018-05-14T02:31:21.731Z,13.51
2018-05-14T02:33:50.090Z,13.53
2018-05-14T02:36:17.702Z,13.51
2018-05-14T02:38:45.293Z,13.48
2018-05-14T02:41:12.876Z,13.37
2018-05-14T02:43:41.277Z,13.37
2018-05-14T02:46:08.855Z,13.39
2018-05-14T02:48:36.430Z,13.41
2018-05-14T02:51:04.064Z,13.33
2018-05-14T02:53:31.728Z,13.39
2018-05-14T02:55:59.347Z,13.45
2018-05-14T02:58:26.925Z,13.47
2018-05-14T03:00:54.511Z,13.39
2018-05-14T03:03:22.089Z,13.23
2018-05-14T03:05:49.664Z,13.23
2018-05-14T03:08:17.249Z,13.20
2018-05-14T03:10:44.830Z,13.27
2018-05-14T03:13:12.407Z,13.34
2018-05-14T03:15:40.084Z,13.25
2018-05-14T03:18:07.679Z,13.09
2018-05-14T03:20:35.263Z,13.12
2018-05-14T03:23:02.872Z,13.07
2018-05-14T03:25:30.464Z,13.10
2018-05-14T03:27:58.041Z,12.95
2018-05-14T03:30:25.618Z,13.05
2018-05-14T03:32:53.201Z,13.22
2018-05-14T03:35:20.777Z,13.14
2018-05-14T03:37:48.473Z,13.09
2018-05-14T03:40:16.051Z,13.19
2018-05-14T03:42:44.226Z,13.20
2018-05-14T03:45:11.800Z,13.37
2018-05-14T03:47:39.402Z,13.46
2018-05-14T03:50:06.977Z,13.56
2018-05-14T03:52:35.497Z,13.50
2018-05-14T03:55:03.068Z,13.68
2018-05-14T03:57:31.434Z,13.67
2018-05-14T04:00:10.829Z,13.70
2018-05-14T04:02:50.395Z,13.64
2018-05-14T04:05:17.977Z,13.66
2018-05-14T04:07:45.562Z,13.71
2018-05-14T04:10:13.130Z,13.77
2018-05-14T04:12:42.545Z,13.75
2018-05-14T04:15:10.130Z,13.80
2018-05-14T04:17:37.706Z,13.77
2018-05-14T04:20:05.284Z,13.89
2018-05-14T04:22:32.853Z,13.85
2018-05-14T04:25:00.432Z,13.87
2018-05-14T04:27:28.012Z,13.91
2018-05-14T04:29:55.859Z,13.97
2018-05-14T04:32:23.481Z,14.05
2018-05-14T04:34:51.113Z,14.19
2018-05-14T04:37:18.686Z,14.26
2018-05-14T04:39:47.249Z,14.27
2018-05-14T04:42:14.833Z,14.33
2018-05-14T04:44:42.410Z,14.37
2018-05-14T04:47:09.990Z,14.35
2018-05-14T04:49:37.567Z,14.40
2018-05-14T04:52:05.161Z,14.44
2018-05-14T04:54:32.797Z,14.52
2018-05-14T04:57:00.483Z,14.73
2018-05-14T04:59:28.070Z,14.80
2018-05-14T05:01:55.659Z,14.94
2018-05-14T05:04:23.271Z,14.85
2018-05-14T05:06:50.853Z,15.09
2018-05-14T05:09:18.429Z,15.15
2018-05-14T05:11:46.008Z,15.13
2018-05-14T05:14:13.614Z,15.19
2018-05-14T05:16:41.197Z,15.16
2018-05-14T05:19:08.805Z,15.27
2018-05-14T05:21:36.385Z,15.32
2018-05-14T05:24:04.769Z,15.44
2018-05-14T05:26:32.349Z,15.52
2018-05-14T05:28:59.932Z,15.61
2018-05-14T05:31:27.511Z,15.76
2018-05-14T05:33:55.085Z,15.90
2018-05-14T05:36:22.669Z,15.92
2018-05-14T05:38:50.245Z,16.05
2018-05-14T05:41:17.914Z,16.19
2018-05-14T05:43:45.496Z,16.19
2018-05-14T05:46:13.076Z,16.37
2018-05-14T05:48:40.725Z,16.47
2018-05-14T05:51:08.308Z,16.64
2018-05-14T05:53:35.882Z,16.70
2018-05-14T05:56:03.459Z,16.82
2018-05-14T05:58:31.038Z,16.92
2018-05-14T06:00:58.623Z,17.04
2018-05-14T06:03:26.209Z,17.21
2018-05-14T06:05:57.606Z,17.42
2018-05-14T06:08:25.179Z,17.58
2018-05-14T06:10:53.761Z,17.69
2018-05-14T06:13:21.341Z,17.78
2018-05-14T06:15:48.930Z,17.85
2018-05-14T06:18:16.502Z,18.00
2018-05-14T06:20:44.074Z,18.13
2018-05-14T06:23:11.657Z,18.24
2018-05-14T06:25:39.234Z,18.38
2018-05-14T06:28:06.816Z,18.48
2018-05-14T06:30:34.389Z,18.59
2018-05-14T06:33:01.977Z,18.72
2018-05-14T06:35:30.566Z,18.89
2018-05-14T06:37:58.988Z,18.98
2018-05-14T06:40:26.660Z,18.92
2018-05-14T06:42:54.173Z,19.11
2018-05-14T06:45:21.749Z,19.21
2018-05-14T06:47:49.325Z,19.28
2018-05-14T06:50:17.899Z,19.28
2018-05-14T06:52:46.239Z,19.40
2018-05-14T06:55:13.860Z,19.51
2018-05-14T06:57:41.423Z,19.56
2018-05-14T07:00:09.001Z,19.60
2018-05-14T07:02:36.580Z,19.72
2018-05-14T07:05:04.157Z,19.87
2018-05-14T07:07:31.733Z,19.99
2018-05-14T07:09:59.315Z,20.08
2018-05-14T07:12:26.883Z,20.22
2018-05-14T07:14:54.462Z,20.26
2018-05-14T07:17:22.045Z,20.34
2018-05-14T07:19:50.535Z,20.37
2018-05-14T07:22:18.106Z,20.44
2018-05-14T07:24:45.700Z,20.58
2018-05-14T07:27:13.289Z,20.74
2018-05-14T07:29:40.865Z,20.83
2018-05-14T07:32:08.499Z,20.94
2018-05-14T07:34:38.010Z,20.94
2018-05-14T07:37:05.589Z,21.08
2018-05-14T07:39:33.165Z,21.07
2018-05-14T07:42:00.761Z,21.19
2018-05-14T07:44:28.343Z,21.21
2018-05-14T07:46:55.918Z,21.17
2018-05-14T07:49:23.492Z,21.30
2018-05-14T07:51:51.074Z,21.43
2018-05-14T07:54:18.739Z,21.41
2018-05-14T07:56:46.261Z,21.60
2018-05-14T07:59:13.831Z,21.59
2018-05-14T08:01:41.398Z,21.71
2018-05-14T08:04:08.965Z,21.81
2018-05-14T08:06:36.536Z,21.76
2018-05-14T08:09:04.114Z,21.89
2018-05-14T08:11:31.681Z,21.88
2018-05-14T08:14:00.228Z,21.89
2018-05-14T08:16:27.770Z,22.06
2018-05-14T08:18:55.344Z,21.91
2018-05-14T08:21:22.917Z,21.98
2018-05-14T08:23:50.829Z,22.09
2018-05-14T08:26:18.409Z,22.15
2018-05-14T08:28:45.984Z,22.16
2018-05-14T08:31:13.569Z,22.23
2018-05-14T08:33:41.158Z,22.41
2018-05-14T08:36:08.823Z,22.41
2018-05-14T08:38:36.357Z,22.54
2018-05-14T08:41:03.929Z,22.53
2018-05-14T08:43:31.506Z,22.70
2018-05-14T08:45:59.092Z,22.66
2018-05-14T08:48:26.666Z,22.72
2018-05-14T08:50:54.436Z,22.83
2018-05-14T08:53:21.844Z,22.86
2018-05-14T08:55:49.409Z,22.95
2018-05-14T08:58:17.073Z,22.91
2018-05-14T09:00:44.611Z,23.14
2018-05-14T09:03:12.188Z,23.17
2018-05-14T09:05:39.765Z,23.13
2018-05-14T09:08:07.342Z,23.03
2018-05-14T09:10:34.917Z,23.07
2018-05-14T09:13:02.496Z,22.93
2018-05-14T09:15:30.066Z,23.08
2018-05-14T09:17:57.634Z,23.29
2018-05-14T09:20:25.205Z,23.51
2018-05-14T09:22:52.784Z,23.55
2018-05-14T09:25:20.365Z,23.53
2018-05-14T09:27:47.941Z,23.55
2018-05-14T09:30:15.511Z,23.58
2018-05-14T09:32:43.890Z,23.50
2018-05-14T09:35:12.181Z,23.48
2018-05-14T09:37:39.753Z,23.46
2018-05-14T09:40:07.694Z,23.39
2018-05-14T09:42:35.268Z,23.56
2018-05-14T09:45:03.548Z,23.78
2018-05-14T09:47:31.912Z,23.84
2018-05-14T09:50:00.262Z,23.77
2018-05-14T09:52:28.827Z,23.80
2018-05-14T09:54:56.413Z,23.77
2018-05-14T09:57:24.026Z,23.88
2018-05-14T09:59:52.301Z,23.87
2018-05-14T10:02:19.881Z,23.96
2018-05-14T10:04:47.454Z,23.74
2018-05-14T10:07:15.025Z,23.72
2018-05-14T10:09:42.602Z,23.86
2018-05-14T10:12:10.875Z,23.86
2018-05-14T10:14:38.454Z,23.83
2018-05-14T10:17:06.026Z,23.91
2018-05-14T10:19:34.506Z,24.02
2018-05-14T10:22:02.081Z,24.07
2018-05-14T10:24:29.652Z,24.17
2018-05-14T10:26:57.225Z,23.95
2018-05-14T10:29:24.799Z,24.01
2018-05-14T10:31:52.412Z,24.12
2018-05-14T10:34:19.981Z,24.21
2018-05-14T10:36:47.559Z,24.10
2018-05-14T10:39:15.133Z,24.24
2018-05-14T10:41:42.710Z,24.27
2018-05-14T10:44:10.285Z,24.56
2018-05-14T10:46:37.931Z,24.59
2018-05-14T10:49:06.152Z,24.71
2018-05-14T10:51:34.426Z,24.63
2018-05-14T10:54:02.772Z,24.52
2018-05-14T10:56:31.109Z,24.26
2018-05-14T10:58:59.389Z,24.17
2018-05-14T11:01:26.965Z,24.18
2018-05-14T11:03:54.612Z,24.19
2018-05-14T11:06:22.190Z,24.19
2018-05-14T11:08:49.770Z,24.07
2018-05-14T11:11:17.346Z,24.31
2018-05-14T11:13:44.921Z,24.42
2018-05-14T11:16:12.545Z,24.43
2018-05-14T11:18:40.177Z,24.30
2018-05-14T11:21:07.749Z,24.43
2018-05-14T11:23:35.324Z,24.64
2018-05-14T11:26:02.910Z,24.61
2018-05-14T11:28:30.522Z,24.59
2018-05-14T11:30:58.090Z,24.65
2018-05-14T11:33:25.660Z,24.43
2018-05-14T11:35:53.233Z,24.48
2018-05-14T11:38:20.807Z,24.62
2018-05-14T11:40:48.378Z,24.69
2018-05-14T11:43:15.969Z,24.43
2018-05-14T11:45:43.568Z,24.72
2018-05-14T11:48:11.186Z,24.72
2018-05-14T11:50:38.762Z,24.85
2018-05-14T11:53:06.349Z,24.89
2018-05-14T11:55:33.926Z,25.03
2018-05-14T11:58:01.501Z,24.79
2018-05-14T12:00:29.079Z,24.55
2018-05-14T12:02:56.703Z,24.78
2018-05-14T12:05:24.270Z,24.60
2018-05-14T12:07:51.906Z,24.62
2018-05-14T12:10:19.482Z,24.66
2018-05-14T12:12:47.065Z,24.81
2018-05-14T12:15:14.644Z,24.75
2018-05-14T12:17:42.258Z,24.68
2018-05-14T12:20:10.747Z,24.63
2018-05-14T12:22:38.366Z,24.66
2018-05-14T12:25:05.944Z,24.71
2018-05-14T12:27:33.516Z,24.82
2018-05-14T12:30:01.091Z,24.87
2018-05-14T12:32:28.675Z,24.89
2018-05-14T12:34:56.248Z,24.83
2018-05-14T12:37:23.848Z,25.06
2018-05-14T12:39:51.431Z,24.84
2018-05-14T12:42:19.925Z,24.93
2018-05-14T12:44:47.501Z,24.76
2018-05-14T12:47:15.072Z,24.93
2018-05-14T12:52:23.300Z,24.73
2018-05-14T12:54:50.878Z,24.81
2018-05-14T12:57:18.592Z,24.80
2018-05-14T12:59:47.007Z,24.87
2018-05-14T13:02:15.349Z,24.53
2018-05-14T13:04:42.924Z,24.31
2018-05-14T13:07:10.537Z,24.50
2018-05-14T13:09:38.921Z,24.44
2018-05-14T13:12:07.278Z,24.34
2018-05-14T13:14:35.641Z,24.24
2018-05-14T13:17:03.977Z,23.91
2018-05-14T13:19:31.552Z,23.98
2018-05-14T13:22:00.050Z,24.08
2018-05-14T13:24:27.621Z,24.16
2018-05-14T13:26:55.188Z,24.10
2018-05-14T13:29:23.593Z,23.77
2018-05-14T13:31:51.162Z,23.91
2018-05-14T13:34:19.677Z,24.11
2018-05-14T13:36:47.951Z,24.07
2018-05-14T13:39:16.345Z,24.04
2018-05-14T13:41:43.921Z,23.97
2018-05-14T13:44:11.619Z,23.95
2018-05-14T13:46:39.154Z,24.15
2018-05-14T13:49:06.725Z,24.34
2018-05-14T13:51:34.337Z,24.37
2018-05-14T13:54:01.913Z,24.32
2018-05-14T13:56:29.552Z,24.09
2018-05-14T13:58:57.138Z,24.04
2018-05-14T14:01:24.747Z,23.95
2018-05-14T14:03:53.213Z,24.05
2018-05-14T14:06:20.799Z,24.10
2018-05-14T14:08:48.378Z,24.22
2018-05-14T14:11:15.958Z,24.26
2018-05-14T14:13:44.477Z,24.40
2018-05-14T14:16:12.044Z,24.37
2018-05-14T14:18:39.662Z,24.27
2018-05-14T14:21:07.237Z,24.27
2018-05-14T14:23:34.958Z,24.39
2018-05-14T14:26:02.470Z,24.42
2018-05-14T14:28:30.059Z,24.26
2018-05-14T14:30:57.633Z,24.41
2018-05-14T14:33:25.213Z,24.38
2018-05-14T14:35:52.885Z,24.35
2018-05-14T14:38:20.401Z,24.19
2018-05-14T14:40:47.977Z,24.36
2018-05-14T14:43:15.556Z,24.59
2018-05-14T14:45:43.126Z,25.15
2018-05-14T14:48:10.698Z,25.28
2018-05-14T14:50:38.275Z,25.71
2018-05-14T14:53:05.853Z,25.53
2018-05-14T14:55:33.422Z,26.06
2018-05-14T14:58:00.993Z,26.87
2018-05-14T15:00:28.569Z,27.04
2018-05-14T15:02:56.145Z,27.19
2018-05-14T15:05:23.716Z,27.31
2018-05-14T15:07:51.289Z,27.05
2018-05-14T15:10:18.908Z,27.33
2018-05-14T15:12:46.482Z,26.98
2018-05-14T15:15:14.097Z,27.41
2018-05-14T15:17:41.678Z,27.06
2018-05-14T15:20:09.302Z,26.93
2018-05-14T15:22:37.765Z,26.64
2018-05-14T15:25:05.333Z,26.53
2018-05-14T15:27:32.901Z,26.04
2018-05-14T15:30:00.480Z,26.27
2018-05-14T15:32:28.057Z,26.19
2018-05-14T15:34:55.628Z,26.47
2018-05-14T15:37:23.206Z,26.04
2018-05-14T15:39:50.780Z,26.16
2018-05-14T15:42:19.269Z,26.51
2018-05-14T15:44:46.849Z,26.39
2018-05-14T15:47:14.425Z,26.14
2018-05-14T15:49:42.000Z,25.78
2018-05-14T15:52:09.565Z,24.88
2018-05-14T15:54:37.132Z,24.44
2018-05-14T15:57:04.743Z,23.89
2018-05-14T15:59:33.155Z,23.56
2018-05-14T16:02:00.732Z,23.23
2018-05-14T16:04:28.302Z,23.00
2018-05-14T16:06:55.883Z,22.77
2018-05-14T16:09:23.505Z,22.75
2018-05-14T16:11:51.101Z,22.65
2018-05-14T16:14:18.717Z,22.52
2018-05-14T16:16:46.306Z,22.53
2018-05-14T16:19:13.876Z,22.52
2018-05-14T16:21:42.336Z,22.44
2018-05-14T16:24:10.686Z,22.50
2018-05-14T16:26:38.369Z,22.42
2018-05-14T16:29:05.989Z,22.14
2018-05-14T16:31:33.530Z,22.11
2018-05-14T16:34:01.934Z,22.19
2018-05-14T16:36:29.510Z,22.13
2018-05-14T16:38:57.093Z,22.04
2018-05-14T16:41:24.665Z,22.01
2018-05-14T16:43:52.241Z,22.12
2018-05-14T16:46:19.817Z,22.05
2018-05-14T16:48:47.397Z,22.12
2018-05-14T16:51:15.881Z,22.28
2018-05-14T16:53:44.534Z,22.16
2018-05-14T16:56:12.104Z,22.13
2018-05-14T16:58:40.509Z,21.89
2018-05-14T17:01:08.090Z,21.66
2018-05-14T17:03:35.666Z,21.45
2018-05-14T17:06:03.286Z,21.22
2018-05-14T17:08:30.869Z,21.05
2018-05-14T17:10:58.442Z,20.82
2018-05-14T17:13:26.017Z,20.68
2018-05-14T17:15:53.638Z,20.64
2018-05-14T17:18:21.222Z,20.49
2018-05-14T17:20:48.813Z,20.41
2018-05-14T17:23:16.394Z,20.50
2018-05-14T17:25:44.882Z,20.52
2018-05-14T17:28:12.514Z,20.53
2018-05-14T17:30:40.092Z,20.48
2018-05-14T17:33:07.666Z,20.57
2018-05-14T17:35:35.237Z,20.55
2018-05-14T17:38:02.812Z,20.38
2018-05-14T17:40:31.344Z,20.38
2018-05-14T17:42:58.927Z,20.14
2018-05-14T17:45:26.500Z,20.15
2018-05-14T17:47:54.085Z,20.29
2018-05-14T17:50:21.705Z,20.10
2018-05-14T17:52:49.338Z,20.12
2018-05-14T17:55:16.940Z,20.02
2018-05-14T17:57:44.521Z,19.90
2018-05-14T18:00:12.133Z,19.86
2018-05-14T18:02:39.712Z,19.79
2018-05-14T18:05:08.227Z,19.53
2018-05-14T18:07:35.770Z,19.61
2018-05-14T18:10:03.355Z,19.58
2018-05-14T18:12:31.854Z,19.45
2018-05-14T18:14:59.434Z,19.33
2018-05-14T18:17:27.073Z,19.27
2018-05-14T18:20:00.093Z,19.21
2018-05-14T18:22:31.642Z,19.16
2018-05-14T18:25:04.918Z,19.00
2018-05-14T18:27:32.483Z,18.81
2018-05-14T18:30:05.670Z,18.60
2018-05-14T18:32:33.288Z,18.44
2018-05-14T18:35:06.475Z,18.46
2018-05-14T18:37:34.045Z,18.32
2018-05-14T18:40:02.398Z,18.15
2018-05-14T18:42:30.814Z,18.13
2018-05-14T18:44:59.223Z,18.19
2018-05-14T18:47:26.811Z,17.90
2018-05-14T18:49:54.561Z,17.92
2018-05-14T18:52:22.199Z,18.00
2018-05-14T18:54:49.854Z,17.86
2018-05-14T18:57:17.435Z,17.77
2018-05-14T18:59:45.031Z,17.71
2018-05-14T19:02:12.753Z,17.57
2018-05-14T19:04:40.343Z,17.46
2018-05-14T19:07:07.917Z,17.29
2018-05-14T19:09:35.538Z,17.18
2018-05-14T19:12:03.262Z,17.13
2018-05-14T19:14:30.849Z,16.98
2018-05-14T19:17:04.026Z,16.93
2018-05-14T19:19:31.612Z,16.82
2018-05-14T19:21:59.197Z,16.70
2018-05-14T19:24:26.770Z,16.68
2018-05-14T19:26:54.351Z,16.58
2018-05-14T19:29:27.635Z,16.64
2018-05-14T19:31:56.080Z,16.50
2018-05-14T19:34:29.297Z,16.48
2018-05-14T19:36:56.901Z,16.45
2018-05-14T19:39:30.097Z,16.44
2018-05-14T19:41:58.581Z,16.35
2018-05-14T19:44:26.167Z,16.32
2018-05-14T19:46:53.749Z,16.39
2018-05-14T19:49:21.401Z,16.33
2018-05-14T19:51:48.986Z,16.25
2018-05-14T19:54:16.667Z,16.23
2018-05-14T19:56:44.245Z,16.18
2018-05-14T19:59:11.909Z,16.27
2018-05-14T20:01:40.301Z,16.34
2018-05-14T20:04:08.647Z,16.30
2018-05-14T20:06:37.028Z,16.34
2018-05-14T20:09:04.611Z,16.36
2018-05-14T20:11:33.145Z,16.48
2018-05-14T20:14:01.489Z,16.61
2018-05-14T20:16:29.962Z,16.64
2018-05-14T20:18:57.613Z,16.64
2018-05-14T20:21:25.185Z,16.67
2018-05-14T20:23:52.814Z,16.65
2018-05-14T20:26:20.411Z,16.61
2018-05-14T20:28:48.065Z,16.47
2018-05-14T20:31:15.652Z,16.37
2018-05-14T20:33:43.288Z,16.36
2018-05-14T20:36:10.988Z,16.24
2018-05-14T20:38:38.610Z,16.35
2018-05-14T20:41:06.233Z,16.25
2018-05-14T20:43:33.834Z,16.15
2018-05-14T20:46:01.460Z,16.13
2018-05-14T20:48:29.033Z,16.14
2018-05-14T20:50:56.667Z,15.99
2018-05-14T20:53:25.149Z,15.93
2018-05-14T20:55:53.600Z,15.68
2018-05-14T20:58:22.082Z,15.49
2018-05-14T21:00:50.405Z,15.36
2018-05-14T21:03:18.797Z,15.21
2018-05-14T21:05:47.242Z,15.29
2018-05-14T21:08:14.804Z,15.26
2018-05-14T21:10:42.417Z,15.18
2018-05-14T21:13:10.139Z,15.07
2018-05-14T21:15:38.951Z,15.18
2018-05-14T21:18:06.575Z,15.11
2018-05-14T21:20:34.160Z,15.02
2018-05-14T21:23:02.895Z,15.02
2018-05-14T21:25:30.482Z,14.98
2018-05-14T21:27:58.100Z,14.86
2018-05-14T21:30:25.678Z,14.84
2018-05-14T21:32:53.261Z,14.80
2018-05-14T21:35:20.908Z,14.91
2018-05-14T21:37:48.447Z,14.82
2018-05-14T21:40:16.022Z,14.68
2018-05-14T21:42:43.601Z,14.70
2018-05-14T21:45:11.216Z,14.63
2018-05-14T21:47:38.796Z,14.64
2018-05-14T21:50:06.381Z,14.53
2018-05-14T21:52:33.958Z,14.52
2018-05-14T21:55:01.535Z,14.38
2018-05-14T21:57:29.154Z,14.23
2018-05-14T21:59:56.721Z,14.20
2018-05-14T22:02:24.373Z,14.19
2018-05-14T22:04:51.957Z,14.00
2018-05-14T22:07:19.536Z,13.99
2018-05-14T22:09:47.113Z,13.87
2018-05-14T22:12:15.494Z,13.77
2018-05-14T22:14:43.861Z,13.80
2018-05-14T22:17:12.337Z,13.69
2018-05-14T22:19:39.921Z,13.61
2018-05-14T22:22:07.497Z,13.61
2018-05-14T22:24:35.072Z,13.62
2018-05-14T22:27:02.647Z,13.55
2018-05-14T22:29:31.052Z,13.59
2018-05-14T22:31:59.519Z,13.48
2018-05-14T22:34:27.138Z,13.39
2018-05-14T22:36:54.713Z,13.49
2018-05-14T22:39:22.290Z,13.35
2018-05-14T22:41:49.865Z,13.35
2018-05-14T22:44:18.262Z,13.35
2018-05-14T22:46:46.717Z,13.23
2018-05-14T22:49:14.297Z,13.08
2018-05-14T22:51:41.909Z,12.98
2018-05-14T22:54:10.269Z,12.86
2018-05-14T22:56:38.637Z,12.76
2018-05-14T22:59:07.046Z,12.76
2018-05-14T23:01:35.394Z,12.76
2018-05-14T23:04:02.972Z,12.79
2018-05-14T23:06:30.545Z,12.78
2018-05-14T23:08:58.121Z,12.85
2018-05-14T23:11:26.461Z,12.78
2018-05-14T23:13:54.828Z,12.74
2018-05-14T23:16:23.093Z,12.75
2018-05-14T23:18:51.766Z,12.76
2018-05-14T23:21:20.143Z,12.75
2018-05-14T23:23:48.407Z,12.65
2018-05-14T23:26:16.808Z,12.58
2018-05-14T23:28:45.186Z,12.57
2018-05-14T23:31:13.565Z,12.57
2018-05-14T23:33:41.925Z,12.55
2018-05-14T23:36:09.546Z,12.45
2018-05-14T23:38:37.796Z,12.43
2018-05-14T23:41:05.410Z,12.51
2018-05-14T23:43:33.764Z,12.33
2018-05-14T23:46:02.162Z,12.38
2018-05-14T23:48:30.448Z,12.28
2018-05-14T23:50:58.885Z,12.23
2018-05-14T23:53:27.470Z,12.18
2018-05-14T23:55:55.054Z,12.15
2018-05-14T23:58:23.467Z,12.18
